Time;durP1;ratioP1;P1;durP2;ratioP2;P2;SDS_P1;SDS_P2;PMS_P1;PMS_P2;Temp;Humidity;BMP_temperature;BMP_pressure;BME280_temperature;BME280_humidity;BME280_pressure;Samples;Min_cycle;Max_cycle;Signal;HPM_P1;HPM_P2
2021/01/10 00:00:13;;;;;;;80.95;42.80;;;1.90;96.50;;;;;;5093053;28;20032;-74
2021/01/10 00:02:40;;;;;;;80.22;41.58;;;1.90;96.50;;;;;;5092066;28;20038;-74
2021/01/10 00:05:08;;;;;;;78.78;40.20;;;1.90;96.50;;;;;;5093054;28;20028;-75
2021/01/10 00:07:34;;;;;;;81.15;40.97;;;1.90;96.40;;;;;;5093181;28;20047;-76
2021/01/10 00:10:00;;;;;;;78.55;39.78;;;1.90;96.60;;;;;;5091970;28;20462;-74
2021/01/10 00:12:27;;;;;;;73.15;38.80;;;1.90;97.00;;;;;;5093007;28;20024;-76
2021/01/10 00:14:53;;;;;;;69.47;37.08;;;1.90;96.90;;;;;;5094226;28;20055;-74
2021/01/10 00:17:19;;;;;;;67.82;35.38;;;1.90;96.80;;;;;;5095299;28;20462;-76
2021/01/10 00:19:46;;;;;;;67.68;35.05;;;1.90;96.80;;;;;;5095613;28;20031;-76
2021/01/10 00:22:13;;;;;;;64.07;33.88;;;1.90;96.80;;;;;;5096082;28;20377;-75
2021/01/10 00:24:40;;;;;;;63.95;33.40;;;1.90;96.80;;;;;;5096812;28;20408;-76
2021/01/10 00:27:13;;;;;;;64.70;34.35;;;1.90;96.90;;;;;;5096673;28;20032;-76
2021/01/10 00:29:42;;;;;;;67.25;35.53;;;1.90;96.70;;;;;;5096672;28;20051;-77
2021/01/10 00:32:08;;;;;;;76.35;38.53;;;1.90;96.90;;;;;;5095020;28;20115;-76
2021/01/10 00:34:33;;;;;;;97.40;47.88;;;1.90;96.80;;;;;;5095185;28;20486;-76
2021/01/10 00:36:59;;;;;;;88.28;45.78;;;1.80;96.60;;;;;;5095182;28;20111;-77
2021/01/10 00:39:25;;;;;;;134.27;64.18;;;1.80;96.70;;;;;;5096398;28;20030;-75
2021/01/10 00:41:51;;;;;;;134.13;67.25;;;1.80;97.10;;;;;;5096458;28;20107;-75
2021/01/10 00:44:17;;;;;;;90.75;44.10;;;1.70;96.80;;;;;;5096487;28;20381;-75
2021/01/10 00:46:42;;;;;;;91.82;44.97;;;1.80;97.00;;;;;;5095188;28;20034;-76
2021/01/10 00:49:08;;;;;;;77.97;38.72;;;1.80;97.10;;;;;;5095903;28;20050;-76
2021/01/10 00:51:34;;;;;;;72.28;37.75;;;1.90;97.10;;;;;;5095140;28;20377;-75
2021/01/10 00:54:00;;;;;;;80.20;39.28;;;1.90;96.90;;;;;;5095645;28;20107;-76
2021/01/10 00:56:25;;;;;;;81.72;39.85;;;1.90;96.90;;;;;;5094978;28;20449;-77
2021/01/10 00:58:51;;;;;;;79.18;38.83;;;1.90;97.10;;;;;;5094926;28;20024;-76
2021/01/10 01:01:17;;;;;;;71.43;36.88;;;1.80;97.20;;;;;;5094620;28;20111;-76
2021/01/10 01:03:43;;;;;;;74.70;39.38;;;1.80;97.10;;;;;;5095996;28;20032;-75
2021/01/10 01:06:12;;;;;;;97.25;50.40;;;1.70;96.50;;;;;;5094464;28;20024;-74
2021/01/10 01:08:37;;;;;;;124.35;64.75;;;1.70;96.80;;;;;;5095210;28;20411;-76
2021/01/10 01:11:04;;;;;;;97.72;51.10;;;1.60;96.80;;;;;;5094650;28;20024;-75
2021/01/10 01:13:30;;;;;;;86.43;43.83;;;1.70;97.10;;;;;;5095149;28;20056;-75
2021/01/10 01:15:55;;;;;;;75.47;39.30;;;1.60;96.90;;;;;;5094653;28;20024;-76
2021/01/10 01:18:21;;;;;;;93.18;49.38;;;1.70;96.90;;;;;;5095956;28;20039;-76
2021/01/10 01:20:47;;;;;;;109.05;52.92;;;1.70;96.90;;;;;;5094167;28;20043;-77
2021/01/10 01:23:12;;;;;;;103.95;51.63;;;1.60;97.10;;;;;;5095305;28;20026;-75
2021/01/10 01:25:39;;;;;;;123.28;65.50;;;1.60;97.00;;;;;;5094239;28;20035;-77
2021/01/10 01:28:06;;;;;;;140.13;75.50;;;1.60;97.20;;;;;;5094784;28;20030;-75
2021/01/10 01:30:31;;;;;;;127.88;66.68;;;1.60;97.40;;;;;;5096103;28;20066;-74
2021/01/10 01:32:57;;;;;;;143.32;75.65;;;1.60;97.40;;;;;;5095681;28;20024;-78
2021/01/10 01:35:23;;;;;;;115.50;58.40;;;1.70;97.60;;;;;;5093686;28;20032;-76
2021/01/10 01:37:49;;;;;;;196.95;98.32;;;1.60;97.30;;;;;;5094325;28;20020;-76
2021/01/10 01:40:14;;;;;;;153.52;74.82;;;1.60;97.40;;;;;;5093974;28;20423;-74
2021/01/10 01:42:40;;;;;;;99.57;51.17;;;1.60;97.50;;;;;;5093819;28;20035;-76
2021/01/10 01:45:08;;;;;;;104.78;50.08;;;1.60;97.60;;;;;;5093956;28;20036;-75
2021/01/10 01:47:35;;;;;;;168.93;69.82;;;1.40;97.70;;;;;;5094059;28;20047;-76
2021/01/10 01:50:03;;;;;;;147.35;62.13;;;1.40;98.00;;;;;;5094916;28;20047;-77
2021/01/10 01:52:29;;;;;;;172.13;72.10;;;1.50;98.10;;;;;;5094364;28;20476;-77
2021/01/10 01:54:56;;;;;;;106.85;49.75;;;1.60;98.00;;;;;;5094113;28;20058;-75
2021/01/10 01:57:22;;;;;;;270.90;100.80;;;1.60;97.60;;;;;;5093770;28;20435;-74
2021/01/10 01:59:47;;;;;;;111.55;55.03;;;1.70;97.70;;;;;;5093738;28;20055;-75
2021/01/10 02:02:13;;;;;;;151.85;71.53;;;1.60;97.60;;;;;;5093393;28;20032;-77
2021/01/10 02:04:54;;;;;;;160.20;75.53;;;1.60;97.70;;;;;;5093558;28;20032;-76
2021/01/10 02:07:41;;;;;;;201.68;95.50;;;1.70;97.70;;;;;;5094450;28;20031;-77
2021/01/10 02:10:11;;;;;;;119.15;60.83;;;1.60;97.80;;;;;;5093278;28;20035;-77
2021/01/10 02:12:43;;;;;;;153.80;81.97;;;1.60;97.80;;;;;;5093587;28;20027;-77
2021/01/10 02:15:15;;;;;;;95.55;46.08;;;1.60;97.90;;;;;;5092896;28;20044;-78
2021/01/10 02:17:45;;;;;;;110.03;56.95;;;1.60;97.70;;;;;;5094209;28;20558;-76
2021/01/10 02:20:15;;;;;;;96.07;48.20;;;1.70;97.80;;;;;;5093365;28;20028;-75
2021/01/10 02:23:00;;;;;;;95.43;47.67;;;1.60;97.70;;;;;;5093940;28;20028;-79
2021/01/10 02:25:26;;;;;;;91.25;47.97;;;1.60;97.90;;;;;;5092993;28;20027;-75
2021/01/10 02:27:53;;;;;;;100.45;50.95;;;1.60;97.80;;;;;;5093228;28;20035;-78
2021/01/10 02:30:20;;;;;;;92.10;45.55;;;1.50;97.70;;;;;;5094050;28;20062;-76
2021/01/10 02:32:51;;;;;;;108.35;56.15;;;1.60;97.90;;;;;;5094014;28;20372;-75
2021/01/10 02:35:17;;;;;;;94.00;49.10;;;1.50;98.10;;;;;;5092102;28;20028;-77
2021/01/10 02:38:12;;;;;;;94.32;47.15;;;1.60;98.00;;;;;;5092308;28;20103;-77
2021/01/10 02:40:53;;;;;;;109.78;54.67;;;1.50;98.00;;;;;;5092108;28;20461;-77
2021/01/10 02:43:22;;;;;;;99.35;48.22;;;1.50;98.00;;;;;;5093252;28;20024;-75
2021/01/10 02:45:51;;;;;;;95.82;48.30;;;1.50;98.30;;;;;;5091657;28;20024;-76
2021/01/10 02:48:17;;;;;;;133.82;64.55;;;1.50;98.20;;;;;;5092293;28;20031;-77
2021/01/10 02:50:42;;;;;;;112.68;55.08;;;1.50;98.40;;;;;;5093083;28;20028;-75
2021/01/10 02:53:08;;;;;;;115.88;58.47;;;1.50;98.50;;;;;;5092664;28;20028;-73
2021/01/10 02:55:34;;;;;;;108.20;53.72;;;1.60;98.60;;;;;;5092736;28;20043;-76
2021/01/10 02:58:06;;;;;;;93.45;45.80;;;1.60;98.40;;;;;;5094252;28;20066;-74
2021/01/10 03:00:32;;;;;;;98.85;46.67;;;1.50;98.20;;;;;;5092655;28;20032;-74
2021/01/10 03:02:58;;;;;;;133.57;66.38;;;1.60;98.30;;;;;;5092819;28;20119;-73
2021/01/10 03:05:26;;;;;;;146.85;72.57;;;1.60;98.30;;;;;;5093121;28;20065;-75
2021/01/10 03:07:54;;;;;;;119.80;60.97;;;1.50;98.30;;;;;;5092777;28;20024;-76
2021/01/10 03:10:20;;;;;;;108.80;52.47;;;1.50;98.40;;;;;;5092365;28;20032;-74
2021/01/10 03:12:47;;;;;;;127.00;66.90;;;1.50;98.40;;;;;;5092670;28;20028;-75
2021/01/10 03:15:14;;;;;;;111.88;57.03;;;1.50;98.60;;;;;;5092641;28;20044;-76
2021/01/10 03:17:46;;;;;;;105.30;52.25;;;1.50;98.70;;;;;;5093532;28;20024;-73
2021/01/10 03:20:13;;;;;;;90.68;45.00;;;1.50;98.40;;;;;;5092700;28;20078;-75
2021/01/10 03:22:40;;;;;;;96.38;47.00;;;1.50;98.30;;;;;;5094903;28;20123;-74
2021/01/10 03:25:07;;;;;;;93.88;44.70;;;1.50;98.40;;;;;;5094524;28;20073;-76
2021/01/10 03:27:35;;;;;;;89.38;44.38;;;1.50;98.40;;;;;;5092300;28;20119;-76
2021/01/10 03:30:03;;;;;;;95.80;46.00;;;1.50;98.10;;;;;;5092446;28;20024;-75
2021/01/10 03:32:29;;;;;;;94.88;46.95;;;1.50;98.20;;;;;;5093993;28;20025;-75
2021/01/10 03:34:54;;;;;;;96.10;47.70;;;1.50;98.40;;;;;;5092122;28;20090;-74
2021/01/10 03:37:20;;;;;;;92.68;45.83;;;1.50;98.30;;;;;;5092391;28;20512;-75
2021/01/10 03:39:46;;;;;;;99.85;48.55;;;1.50;98.50;;;;;;5092450;28;20036;-75
2021/01/10 03:42:11;;;;;;;95.63;46.00;;;1.40;98.20;;;;;;5093356;28;20065;-75
2021/01/10 03:44:37;;;;;;;94.45;48.00;;;1.50;98.20;;;;;;5092872;28;20032;-74
2021/01/10 03:47:03;;;;;;;98.57;47.53;;;1.40;98.20;;;;;;5092594;28;20024;-74
2021/01/10 03:49:29;;;;;;;103.78;50.17;;;1.50;98.40;;;;;;5094108;28;20024;-76
2021/01/10 03:51:55;;;;;;;100.47;48.42;;;1.50;98.30;;;;;;5096272;28;20462;-77
2021/01/10 03:54:20;;;;;;;95.10;47.55;;;1.50;98.20;;;;;;5095776;28;20031;-75
2021/01/10 03:56:46;;;;;;;93.65;46.80;;;1.60;98.30;;;;;;5096074;28;20066;-74
2021/01/10 03:59:12;;;;;;;85.28;41.45;;;1.50;98.10;;;;;;5097002;28;20126;-74
2021/01/10 04:01:38;;;;;;;85.97;41.80;;;1.40;97.90;;;;;;5095662;28;20390;-76
2021/01/10 04:04:04;;;;;;;83.75;42.08;;;1.40;98.00;;;;;;5095886;28;20028;-76
2021/01/10 04:06:29;;;;;;;94.07;45.60;;;1.50;98.40;;;;;;5097199;28;20035;-75
2021/01/10 04:08:55;;;;;;;105.07;51.67;;;1.50;97.90;;;;;;5095806;28;20028;-75
2021/01/10 04:11:22;;;;;;;87.47;42.88;;;1.50;97.80;;;;;;5096009;28;20500;-76
2021/01/10 04:13:49;;;;;;;99.13;47.55;;;1.50;97.70;;;;;;5095567;28;20064;-76
2021/01/10 04:16:14;;;;;;;104.25;48.20;;;1.50;98.00;;;;;;5096769;28;20020;-75
2021/01/10 04:18:41;;;;;;;117.47;54.75;;;1.40;98.40;;;;;;5096122;28;20031;-75
2021/01/10 04:21:06;;;;;;;117.53;54.63;;;1.40;98.50;;;;;;5095578;28;20032;-76
2021/01/10 04:23:32;;;;;;;111.95;53.03;;;1.40;98.70;;;;;;5096757;28;20099;-75
2021/01/10 04:25:58;;;;;;;116.43;55.67;;;1.40;98.50;;;;;;5096584;28;20028;-75
2021/01/10 04:28:24;;;;;;;97.57;48.95;;;1.40;98.60;;;;;;5095591;28;20069;-75
2021/01/10 04:30:50;;;;;;;108.28;49.08;;;1.40;98.70;;;;;;5095184;28;20114;-76
2021/01/10 04:33:16;;;;;;;114.95;52.55;;;1.50;98.50;;;;;;5096524;28;20028;-76
2021/01/10 04:35:41;;;;;;;113.22;52.40;;;1.40;98.50;;;;;;5095314;28;20500;-75
2021/01/10 04:38:07;;;;;;;106.53;48.67;;;1.30;98.70;;;;;;5095078;28;20031;-77
2021/01/10 04:40:33;;;;;;;103.45;48.35;;;1.30;98.70;;;;;;5095237;28;20043;-77
2021/01/10 04:42:59;;;;;;;101.72;47.85;;;1.40;98.80;;;;;;5096500;28;20380;-76
2021/01/10 04:45:25;;;;;;;196.38;76.88;;;1.40;98.70;;;;;;5096155;28;20103;-75
2021/01/10 04:47:51;;;;;;;165.82;68.85;;;1.40;98.60;;;;;;5095451;28;20099;-77
2021/01/10 04:50:17;;;;;;;271.30;95.35;;;1.40;98.70;;;;;;5094744;28;20077;-75
2021/01/10 04:52:44;;;;;;;282.35;105.57;;;1.40;98.70;;;;;;5095031;28;20028;-76
2021/01/10 04:55:12;;;;;;;228.80;89.47;;;1.40;98.70;;;;;;5094954;28;20074;-76
2021/01/10 04:57:41;;;;;;;156.63;67.95;;;1.50;98.70;;;;;;5094787;28;20028;-75
2021/01/10 05:00:10;;;;;;;115.32;53.20;;;1.50;98.60;;;;;;5095574;28;20515;-75
2021/01/10 05:02:45;;;;;;;159.48;72.97;;;1.50;98.30;;;;;;5094700;28;20028;-75
2021/01/10 05:05:12;;;;;;;102.32;49.70;;;1.50;98.50;;;;;;5094343;28;20114;-76
2021/01/10 05:07:38;;;;;;;108.05;51.60;;;1.50;98.30;;;;;;5094642;28;20032;-77
2021/01/10 05:10:04;;;;;;;116.10;51.13;;;1.50;98.50;;;;;;5094729;28;20111;-75
2021/01/10 05:12:30;;;;;;;114.75;53.85;;;1.50;98.50;;;;;;5095675;28;20028;-77
2021/01/10 05:14:56;;;;;;;131.32;60.40;;;1.40;98.40;;;;;;5096669;28;20052;-74
2021/01/10 05:17:21;;;;;;;146.82;70.00;;;1.40;98.60;;;;;;5098179;28;20035;-73
2021/01/10 05:19:48;;;;;;;140.00;68.32;;;1.40;98.60;;;;;;5096398;28;20028;-75
2021/01/10 05:22:16;;;;;;;131.82;66.25;;;1.50;98.60;;;;;;5094547;28;20031;-75
2021/01/10 05:24:44;;;;;;;108.68;53.22;;;1.40;98.60;;;;;;5094419;28;20069;-76
2021/01/10 05:27:10;;;;;;;93.40;49.10;;;1.50;98.60;;;;;;5094143;28;20031;-76
2021/01/10 05:29:35;;;;;;;88.15;44.78;;;1.50;98.60;;;;;;5094467;28;20458;-76
2021/01/10 05:32:03;;;;;;;83.30;43.42;;;1.50;98.40;;;;;;5094517;28;20028;-77
2021/01/10 05:34:28;;;;;;;79.50;40.60;;;1.50;98.50;;;;;;5093899;28;20043;-75
2021/01/10 05:36:56;;;;;;;81.28;40.90;;;1.50;98.30;;;;;;5094209;28;20376;-75
2021/01/10 05:39:29;;;;;;;87.63;41.38;;;1.50;98.30;;;;;;5095040;28;20031;-75
2021/01/10 05:41:57;;;;;;;86.78;42.00;;;1.50;98.40;;;;;;5095376;28;20416;-74
2021/01/10 05:44:31;;;;;;;81.88;40.90;;;1.50;98.70;;;;;;5093925;28;20028;-75
2021/01/10 05:47:08;;;;;;;79.88;39.63;;;1.50;98.60;;;;;;5095118;28;20024;-76
2021/01/10 05:49:34;;;;;;;80.88;37.40;;;1.50;98.40;;;;;;5095592;28;20025;-76
2021/01/10 05:52:10;;;;;;;78.25;38.53;;;1.40;98.30;;;;;;5095170;28;20092;-77
2021/01/10 05:54:41;;;;;;;77.97;38.10;;;1.40;98.40;;;;;;5093517;28;20393;-74
2021/01/10 05:57:27;;;;;;;78.13;38.08;;;1.50;98.70;;;;;;5093818;28;20025;-76
2021/01/10 05:59:54;;;;;;;81.28;40.22;;;1.50;98.60;;;;;;5093695;28;20032;-77
2021/01/10 06:02:33;;;;;;;108.70;55.17;;;1.50;98.40;;;;;;5094703;28;20023;-74
2021/01/10 06:05:17;;;;;;;113.30;56.25;;;1.50;98.60;;;;;;5093955;28;20052;-76
2021/01/10 06:07:44;;;;;;;131.35;69.88;;;1.50;98.50;;;;;;5094643;28;20028;-75
2021/01/10 06:10:11;;;;;;;121.28;63.33;;;1.40;98.60;;;;;;5093640;28;20032;-76
2021/01/10 06:12:39;;;;;;;105.05;56.88;;;1.40;98.70;;;;;;5092784;28;20024;-76
2021/01/10 06:15:10;;;;;;;95.82;46.08;;;1.40;98.70;;;;;;5092956;28;20545;-77
2021/01/10 06:17:46;;;;;;;151.20;80.57;;;1.40;98.70;;;;;;5093467;28;20530;-76
2021/01/10 06:20:26;;;;;;;133.23;66.75;;;1.40;98.50;;;;;;5093591;28;20024;-73
2021/01/10 06:22:55;;;;;;;136.18;75.60;;;1.40;98.70;;;;;;5093287;28;20042;-76
2021/01/10 06:25:23;;;;;;;143.52;79.95;;;1.50;98.60;;;;;;5093416;28;20032;-73
2021/01/10 06:27:58;;;;;;;105.57;58.70;;;1.50;98.40;;;;;;5093255;28;20024;-75
2021/01/10 06:30:27;;;;;;;;;;;1.50;98.50;;;;;;5093319;28;20050;-76
2021/01/10 06:33:11;;;;;;;81.38;39.17;;;1.40;98.40;;;;;;5093104;28;20403;-76
2021/01/10 06:35:39;;;;;;;86.00;41.65;;;1.40;98.50;;;;;;5094810;28;20122;-74
2021/01/10 06:38:07;;;;;;;86.88;42.72;;;1.40;98.80;;;;;;5095841;28;20062;-76
2021/01/10 06:40:34;;;;;;;69.75;35.28;;;1.40;98.90;;;;;;5095180;28;20028;-76
2021/01/10 06:43:04;;;;;;;73.93;35.83;;;1.40;98.60;;;;;;5094447;28;20065;-75
2021/01/10 06:45:40;;;;;;;77.40;38.95;;;1.40;98.50;;;;;;5093412;28;20028;-74
2021/01/10 06:48:07;;;;;;;83.13;41.20;;;1.40;98.40;;;;;;5093171;28;20024;-75
2021/01/10 06:50:33;;;;;;;73.32;38.28;;;1.40;98.50;;;;;;5092916;28;20085;-76
2021/01/10 06:53:17;;;;;;;70.47;37.05;;;1.50;98.50;;;;;;5093108;28;20479;-77
2021/01/10 06:55:46;;;;;;;79.85;39.88;;;1.40;98.40;;;;;;5092775;28;20173;-77
2021/01/10 06:58:12;;;;;;;73.70;37.38;;;1.50;98.40;;;;;;5092655;28;20485;-75
2021/01/10 07:00:55;;;;;;;65.95;33.45;;;1.50;98.30;;;;;;5092804;28;20024;-74
2021/01/10 07:03:22;;;;;;;74.55;36.90;;;1.50;98.50;;;;;;5092385;28;20039;-74
2021/01/10 07:06:01;;;;;;;73.18;36.95;;;1.60;98.50;;;;;;5092731;28;20485;-73
2021/01/10 07:08:53;;;;;;;94.15;47.00;;;1.60;98.60;;;;;;5093534;28;20024;-73
2021/01/10 07:11:22;;;;;;;67.93;37.03;;;1.60;98.40;;;;;;5087611;28;20036;-76
2021/01/10 07:13:50;;;;;;;81.53;39.85;;;1.60;98.30;;;;;;5092485;28;20463;-76
2021/01/10 07:16:20;;;;;;;151.20;72.72;;;1.60;98.00;;;;;;5092563;28;20063;-75
2021/01/10 07:18:53;;;;;;;80.97;42.45;;;1.60;98.10;;;;;;5092279;28;20028;-74
2021/01/10 07:21:51;;;;;;;78.53;40.22;;;1.50;97.80;;;;;;5092692;28;20488;-73
2021/01/10 07:24:16;;;;;;;103.60;53.97;;;1.60;97.90;;;;;;5081636;28;20043;-76
2021/01/10 07:26:43;;;;;;;124.10;59.42;;;1.60;98.00;;;;;;5096617;28;20377;-75
2021/01/10 07:29:31;;;;;;;255.20;133.98;;;1.60;97.80;;;;;;5096889;28;20028;-73
2021/01/10 07:31:58;;;;;;;108.57;61.60;;;1.60;97.90;;;;;;5095809;28;20073;-75
2021/01/10 07:34:25;;;;;;;70.13;36.83;;;1.60;97.90;;;;;;5096533;28;20389;-74
2021/01/10 07:36:53;;;;;;;68.32;34.90;;;1.60;97.60;;;;;;5096478;28;20024;-76
2021/01/10 07:39:27;;;;;;;67.45;35.45;;;1.60;97.80;;;;;;5097372;28;20016;-74
2021/01/10 07:42:13;;;;;;;123.07;68.65;;;1.60;97.80;;;;;;5096832;28;20541;-76
2021/01/10 07:44:53;;;;;;;106.28;55.33;;;1.60;97.90;;;;;;5097130;28;20028;-74
2021/01/10 07:47:43;;;;;;;98.38;50.85;;;1.70;98.10;;;;;;5097005;28;20020;-76
2021/01/10 07:50:20;;;;;;;89.57;49.03;;;1.80;98.00;;;;;;5096175;28;20028;-75
2021/01/10 07:52:54;;;;;;;133.25;77.10;;;1.70;97.90;;;;;;5097334;28;20126;-76
2021/01/10 07:55:19;;;;;;;145.02;79.65;;;1.70;97.60;;;;;;5095934;28;20068;-77
2021/01/10 07:57:46;;;;;;;107.95;59.17;;;1.80;97.80;;;;;;5096070;28;20055;-74
2021/01/10 08:00:19;;;;;;;108.18;55.17;;;1.80;97.50;;;;;;5097244;28;20103;-75
2021/01/10 08:02:44;;;;;;;113.35;61.05;;;1.80;97.60;;;;;;5095990;28;20389;-74
2021/01/10 08:05:27;;;;;;;122.40;65.70;;;1.90;98.00;;;;;;5096467;28;20032;-73
2021/01/10 08:08:00;;;;;;;173.32;100.88;;;1.90;97.80;;;;;;5095591;28;20024;-77
2021/01/10 08:10:40;;;;;;;143.15;87.93;;;2.00;97.60;;;;;;5095764;28;20024;-76
2021/01/10 08:13:26;;;;;;;104.25;57.58;;;2.00;97.10;;;;;;5095562;28;20173;-74
2021/01/10 08:16:27;;;;;;;92.70;54.25;;;2.00;97.10;;;;;;5095566;28;20077;-75
2021/01/10 08:18:53;;;;;;;88.25;48.80;;;2.00;97.40;;;;;;5096925;28;20056;-75
2021/01/10 08:21:19;;;;;;;87.72;50.10;;;2.00;97.50;;;;;;5095149;28;20024;-75
2021/01/10 08:23:52;;;;;;;101.25;58.00;;;2.00;97.30;;;;;;5096824;28;20031;-76
2021/01/10 08:26:18;;;;;;;93.65;49.53;;;2.00;97.50;;;;;;5095801;28;20469;-76
2021/01/10 08:28:45;;;;;;;99.90;55.95;;;1.90;97.30;;;;;;5095174;28;20020;-74
2021/01/10 08:31:13;;;;;;;348.23;169.00;;;1.90;97.30;;;;;;5095609;28;20039;-73
2021/01/10 08:33:39;;;;;;;145.43;76.03;;;1.90;97.50;;;;;;5095282;28;20035;-73
2021/01/10 08:36:10;;;;;;;110.00;58.47;;;1.90;96.80;;;;;;5095788;28;20024;-72
2021/01/10 08:38:44;;;;;;;106.30;57.95;;;1.90;96.70;;;;;;5094988;28;20028;-73
2021/01/10 08:41:10;;;;;;;69.72;38.35;;;2.00;97.30;;;;;;5095341;28;20032;-75
2021/01/10 08:43:47;;;;;;;59.90;32.80;;;2.10;97.40;;;;;;5095186;28;20382;-72
2021/01/10 08:46:13;;;;;;;66.07;36.53;;;2.10;97.00;;;;;;5093395;28;20465;-71
2021/01/10 08:48:41;;;;;;;73.93;39.22;;;2.10;97.00;;;;;;5093263;28;20031;-74
2021/01/10 08:51:07;;;;;;;66.85;37.25;;;2.10;96.90;;;;;;5091770;28;20139;-72
2021/01/10 08:53:40;;;;;;;62.10;34.70;;;2.20;97.00;;;;;;5093189;28;20136;-75
2021/01/10 08:56:15;;;;;;;65.68;35.92;;;2.20;96.80;;;;;;5094276;28;20028;-74
2021/01/10 08:58:42;;;;;;;59.33;31.05;;;2.10;96.60;;;;;;5095951;28;20093;-74
2021/01/10 09:01:18;;;;;;;51.38;28.60;;;2.10;96.80;;;;;;5096210;28;20024;-76
2021/01/10 09:03:55;;;;;;;60.75;31.73;;;2.20;97.20;;;;;;5095689;28;20107;-74
2021/01/10 09:06:27;;;;;;;62.47;34.80;;;2.20;97.00;;;;;;5094935;28;20449;-74
2021/01/10 09:09:01;;;;;;;90.78;48.45;;;2.30;96.80;;;;;;5095041;28;20489;-73
2021/01/10 09:11:30;;;;;;;78.10;40.97;;;2.30;96.90;;;;;;5096218;28;20020;-72
2021/01/10 09:14:00;;;;;;;78.63;42.55;;;2.20;96.90;;;;;;5093703;28;20052;-74
2021/01/10 09:16:31;;;;;;;93.65;50.58;;;2.20;96.90;;;;;;5095312;28;20393;-75
2021/01/10 09:18:58;;;;;;;93.63;52.33;;;2.20;97.10;;;;;;5095025;28;20031;-74
2021/01/10 09:21:27;;;;;;;121.72;70.85;;;2.10;97.10;;;;;;5093597;28;20028;-74
2021/01/10 09:23:58;;;;;;;78.10;41.65;;;2.10;97.50;;;;;;5094685;28;20469;-74
2021/01/10 09:26:32;;;;;;;80.35;40.28;;;2.00;97.20;;;;;;5093364;28;20055;-73
2021/01/10 09:28:59;;;;;;;73.82;38.20;;;2.00;97.30;;;;;;5092443;28;20024;-73
2021/01/10 09:31:47;;;;;;;87.13;45.42;;;2.00;97.60;;;;;;5094451;28;20036;-73
2021/01/10 09:34:14;;;;;;;78.40;41.78;;;1.80;97.50;;;;;;5092948;28;20434;-72
2021/01/10 09:36:40;;;;;;;85.18;45.10;;;1.80;97.70;;;;;;5094091;28;20110;-74
2021/01/10 09:39:07;;;;;;;78.32;40.72;;;1.80;98.00;;;;;;5094974;28;20361;-72
2021/01/10 09:41:55;;;;;;;71.93;38.78;;;1.80;98.30;;;;;;5094708;28;20038;-72
2021/01/10 09:44:21;;;;;;;73.57;38.30;;;1.90;98.40;;;;;;5094243;28;20206;-73
2021/01/10 09:46:53;;;;;;;90.40;48.83;;;1.90;98.20;;;;;;5092504;28;20358;-72
2021/01/10 09:49:22;;;;;;;69.55;38.63;;;1.90;98.30;;;;;;5093531;28;20020;-73
2021/01/10 09:52:14;;;;;;;79.25;38.03;;;1.90;97.90;;;;;;5093755;28;20466;-72
2021/01/10 09:54:40;;;;;;;71.68;38.80;;;2.00;98.40;;;;;;5089792;28;20043;-72
2021/01/10 09:57:13;;;;;;;108.82;65.18;;;2.00;98.40;;;;;;5093076;28;20020;-73
2021/01/10 09:59:41;;;;;;;85.70;44.33;;;2.10;97.90;;;;;;5092400;28;20470;-75
2021/01/10 10:02:23;;;;;;;81.53;42.72;;;2.10;97.90;;;;;;5092163;28;20173;-72
2021/01/10 10:04:51;;;;;;;75.45;38.92;;;2.20;97.70;;;;;;5090544;28;20028;-74
2021/01/10 10:07:34;;;;;;;71.53;37.50;;;2.10;97.60;;;;;;5092880;28;20024;-74
2021/01/10 10:10:00;;;;;;;68.00;36.38;;;2.20;97.60;;;;;;5093319;28;20031;-73
2021/01/10 10:12:26;;;;;;;70.15;37.85;;;2.10;97.20;;;;;;5094747;28;20028;-72
2021/01/10 10:14:59;;;;;;;78.18;40.75;;;2.10;97.50;;;;;;5092917;28;20048;-72
2021/01/10 10:17:30;;;;;;;82.57;43.88;;;2.20;97.90;;;;;;5093361;28;20035;-73
2021/01/10 10:19:57;;;;;;;80.90;41.22;;;2.20;97.70;;;;;;5093678;28;20389;-74
2021/01/10 10:22:34;;;;;;;86.30;45.95;;;2.30;97.90;;;;;;5093311;28;20026;-72
2021/01/10 10:25:01;;;;;;;84.35;44.17;;;2.30;97.70;;;;;;5093150;28;20024;-72
2021/01/10 10:27:31;;;;;;;70.72;38.22;;;2.20;97.90;;;;;;5093525;28;20110;-73
2021/01/10 10:29:58;;;;;;;77.25;44.20;;;2.30;97.80;;;;;;5094473;28;20074;-74
2021/01/10 10:32:23;;;;;;;70.57;38.58;;;2.30;97.50;;;;;;5093085;28;20074;-72
2021/01/10 10:34:51;;;;;;;79.00;42.63;;;2.30;97.70;;;;;;5092987;28;20432;-77
2021/01/10 10:37:17;;;;;;;81.72;43.15;;;2.40;97.80;;;;;;5092553;28;20422;-72
2021/01/10 10:39:44;;;;;;;70.28;38.47;;;2.30;97.70;;;;;;5093019;28;20059;-72
2021/01/10 10:42:12;;;;;;;70.43;37.92;;;2.40;97.80;;;;;;5094006;28;20056;-74
2021/01/10 10:44:38;;;;;;;68.68;37.22;;;2.50;97.40;;;;;;5092526;28;20021;-75
2021/01/10 10:47:04;;;;;;;65.90;37.17;;;2.40;97.50;;;;;;5092729;28;20028;-73
2021/01/10 10:49:30;;;;;;;81.57;40.92;;;2.50;97.20;;;;;;5092835;28;20084;-73
2021/01/10 10:51:59;;;;;;;78.93;41.83;;;2.50;97.70;;;;;;5092887;28;20024;-76
2021/01/10 10:54:25;;;;;;;80.45;42.88;;;2.50;97.20;;;;;;5092703;28;20036;-75
2021/01/10 10:56:51;;;;;;;72.25;38.55;;;2.40;97.50;;;;;;5092798;28;20028;-75
2021/01/10 10:59:17;;;;;;;75.47;38.85;;;2.40;97.50;;;;;;5092063;28;20028;-74
2021/01/10 11:01:45;;;;;;;80.65;43.65;;;2.40;97.60;;;;;;5092842;28;20161;-76
2021/01/10 11:04:12;;;;;;;84.95;46.50;;;2.40;97.40;;;;;;5092650;28;20035;-75
2021/01/10 11:06:38;;;;;;;91.65;46.45;;;2.40;97.60;;;;;;5092445;28;20024;-74
2021/01/10 11:09:09;;;;;;;84.05;43.25;;;2.40;97.60;;;;;;5093136;28;20416;-76
2021/01/10 11:11:40;;;;;;;75.60;39.78;;;2.40;97.60;;;;;;5092499;28;20466;-75
2021/01/10 11:14:07;;;;;;;67.18;34.10;;;2.40;97.50;;;;;;5094001;28;20066;-76
2021/01/10 11:16:34;;;;;;;65.80;35.20;;;2.40;97.00;;;;;;5092583;28;20036;-77
2021/01/10 11:19:00;;;;;;;83.75;41.35;;;2.40;97.00;;;;;;5092247;28;20028;-75
2021/01/10 11:21:30;;;;;;;87.13;41.13;;;2.40;97.20;;;;;;5093827;28;20099;-75
2021/01/10 11:23:56;;;;;;;76.70;37.75;;;2.40;97.50;;;;;;5092423;28;20028;-75
2021/01/10 11:26:22;;;;;;;65.13;33.30;;;2.40;97.20;;;;;;5092278;28;20085;-73
2021/01/10 11:28:48;;;;;;;76.32;39.53;;;2.40;97.20;;;;;;5096409;28;20020;-77
2021/01/10 11:31:14;;;;;;;75.47;38.03;;;2.40;97.60;;;;;;5094194;28;20381;-74
2021/01/10 11:33:40;;;;;;;68.05;34.58;;;2.40;97.50;;;;;;5092486;28;20062;-76
2021/01/10 11:36:09;;;;;;;67.47;33.80;;;2.40;97.40;;;;;;5092500;28;20477;-77
2021/01/10 11:38:35;;;;;;;75.50;34.92;;;2.40;97.30;;;;;;5092439;28;20029;-75
2021/01/10 11:41:06;;;;;;;69.53;34.50;;;2.40;97.20;;;;;;5092037;28;20461;-72
2021/01/10 11:43:32;;;;;;;67.80;34.35;;;2.40;97.40;;;;;;5090752;28;20039;-74
2021/01/10 11:45:58;;;;;;;99.20;46.58;;;2.30;97.50;;;;;;5091750;28;20020;-75
2021/01/10 11:48:24;;;;;;;107.22;50.88;;;2.30;97.60;;;;;;5091892;28;20453;-75
2021/01/10 11:50:50;;;;;;;87.65;46.75;;;2.30;97.40;;;;;;5091811;28;20028;-74
2021/01/10 11:53:15;;;;;;;105.47;56.22;;;2.30;97.20;;;;;;5091942;28;20036;-75
2021/01/10 11:55:41;;;;;;;99.30;51.42;;;2.30;97.40;;;;;;5090709;28;20584;-76
2021/01/10 11:58:07;;;;;;;87.70;44.30;;;2.30;97.70;;;;;;5091006;28;20158;-75
2021/01/10 12:00:32;;;;;;;85.68;43.13;;;2.30;97.50;;;;;;5091173;28;20153;-75
2021/01/10 12:02:58;;;;;;;72.60;37.95;;;2.30;97.50;;;;;;5091828;28;20097;-76
2021/01/10 12:05:24;;;;;;;72.45;38.10;;;2.30;97.50;;;;;;5091940;28;20584;-76
2021/01/10 12:07:50;;;;;;;69.45;37.53;;;2.30;97.50;;;;;;5091731;28;20028;-76
2021/01/10 12:10:15;;;;;;;71.78;36.28;;;2.30;97.50;;;;;;5094728;28;20022;-72
2021/01/10 12:12:41;;;;;;;75.40;36.13;;;2.30;97.50;;;;;;5095891;28;20051;-80
2021/01/10 12:15:07;;;;;;;67.70;34.92;;;2.30;97.60;;;;;;5095269;28;20102;-77
2021/01/10 12:17:33;;;;;;;79.47;44.10;;;2.30;97.70;;;;;;5095759;28;20536;-75
2021/01/10 12:19:58;;;;;;;64.60;35.03;;;2.30;97.40;;;;;;5095404;28;20115;-74
2021/01/10 12:22:24;;;;;;;67.82;35.22;;;2.30;97.60;;;;;;5095161;28;20031;-73
2021/01/10 12:24:50;;;;;;;64.70;35.13;;;2.40;97.70;;;;;;5096020;28;20059;-73
2021/01/10 12:27:15;;;;;;;78.95;41.08;;;2.40;97.60;;;;;;5097387;28;20432;-71
2021/01/10 12:29:41;;;;;;;77.07;42.03;;;2.40;97.40;;;;;;5095094;28;20028;-72
2021/01/10 12:32:07;;;;;;;70.18;37.65;;;2.40;97.30;;;;;;5095277;28;20028;-72
2021/01/10 12:34:33;;;;;;;76.57;40.17;;;2.40;97.30;;;;;;5096235;28;20028;-72
2021/01/10 12:36:58;;;;;;;96.97;46.85;;;2.30;97.40;;;;;;5095041;28;20111;-75
2021/01/10 12:39:24;;;;;;;98.22;47.55;;;2.30;97.40;;;;;;5095211;28;20024;-76
2021/01/10 12:41:50;;;;;;;97.57;48.67;;;2.30;97.50;;;;;;5095490;28;20055;-74